الصفحة الرئيسية
METAR-TAF:

METAR-TAF

مطار :

Adak Island, ألاسكا, الولايات المتحدة

دائرة عرض: 51-52-40N, خط طول: 176-38-45W, ارتفاع: 6 متر

مراقبة الطقس الحالي

تاريخ ووقت الإصدار 39 دقيقة قبل الساعة 01:56UTC
ريح 10 عقدة من الغرب/الجنوب الغربي
درجة الحرارة 12°درجة مئوية
الرطوبة 76%
ضغط 1021 hPa
الرؤية: 16.1 كم
ملبد بالغيوم على ارتفاع 1800 قدم

METAR: PADK 180156Z AUTO 24010KT 10SM OVC018 12/08 A3016 RMK AO2 SLP213 T01170078 $

زمن: 18:35 (02:35 UTC)


TAF: مفقودة

أرصاد الطقس والتوقعات من أكثر من 4000 مطار (تقارير الطقس للمطار METAR والتنبؤ بالطقس بالمطارTAF).

المحطات المتاحة هي النقط الصفراء والحمراء على الخريطة.

حرك المؤشر فوق النقطة لمعرفة اسم المحطة.

ثم انقر لمعرفة أرصاد وتوقعات الطقس.

لتغيير الخارطة: اضغط على الأزرار الخضراء مع رمز الصليب الأسود للتكبير. على الزر الأخضر مع شرطة للتصغير، أو على الأسهم الخضراء للخرائط المجاورة.


METAR-TAF: